Time;durP1;ratioP1;P1;durP2;ratioP2;P2;SDS_P1;SDS_P2;PMS_P1;PMS_P2;Temp;Humidity;BMP_temperature;BMP_pressure;BME280_temperature;BME280_humidity;BME280_pressure;Samples;Min_cycle;Max_cycle;Signal;HPM_P1;HPM_P2
2022/11/19 00:01:09;;;;;;;27.10;14.50;;;;;;;-2.42;73.86;98468.14;1778788;80;20995;-39
2022/11/19 00:03:37;;;;;;;29.67;14.25;;;;;;;-2.31;73.38;98463.66;1778869;80;21031;-40
2022/11/19 00:06:10;;;;;;;28.75;14.60;;;;;;;-2.44;73.87;98461.72;1779012;81;20984;-38
2022/11/19 00:08:36;;;;;;;30.55;14.25;;;;;;;-2.36;74.29;98468.06;1778897;81;21464;-40
2022/11/19 00:11:05;;;;;;;24.20;12.88;;;;;;;-2.37;73.88;98466.34;1778817;81;21449;-39
2022/11/19 00:13:31;;;;;;;26.57;13.72;;;;;;;-2.36;73.57;98467.61;1778815;81;20991;-37
2022/11/19 00:16:06;;;;;;;27.93;13.65;;;;;;;-2.32;73.68;98466.68;1778750;80;20997;-40
2022/11/19 00:18:32;;;;;;;27.27;13.58;;;;;;;-2.32;73.33;98470.55;1778775;81;21029;-38
2022/11/19 00:21:07;;;;;;;26.55;12.82;;;;;;;-2.29;73.44;98472.65;1778797;81;20972;-36
2022/11/19 00:23:33;;;;;;;29.27;13.83;;;;;;;-2.45;73.07;98475.94;1778771;81;21007;-41
2022/11/19 00:26:11;;;;;;;25.80;12.73;;;;;;;-2.61;74.02;98474.88;1778810;81;20991;-38
2022/11/19 00:28:37;;;;;;;25.25;12.58;;;;;;;-2.49;74.00;98470.40;1778884;81;20995;-39
2022/11/19 00:31:10;;;;;;;26.27;13.90;;;;;;;-2.42;73.81;98471.59;1778786;80;21026;-40
2022/11/19 00:33:38;;;;;;;24.18;12.75;;;;;;;-2.51;74.13;98482.00;1778458;80;21003;-42
2022/11/19 00:36:06;;;;;;;24.82;12.43;;;;;;;-2.42;74.01;98487.03;1778756;81;21537;-40
2022/11/19 00:38:32;;;;;;;25.50;12.78;;;;;;;-2.29;73.36;98482.95;1778752;80;21501;-39
2022/11/19 00:40:58;;;;;;;26.50;12.20;;;;;;;-2.28;73.26;98484.67;1778700;81;21537;-40
2022/11/19 00:46:09;;;;;;;27.13;13.43;;;;;;;-2.18;72.62;98493.95;1778795;81;20982;-40
2022/11/19 00:48:35;;;;;;;25.20;12.07;;;;;;;-2.19;72.50;98487.09;1783704;80;21026;-41
2022/11/19 00:51:01;;;;;;;22.10;11.60;;;;;;;-2.18;72.67;98488.80;1787195;80;21539;-38
2022/11/19 00:53:27;;;;;;;27.55;12.75;;;;;;;-2.28;71.72;98490.66;1787023;80;21022;-38
2022/11/19 00:55:53;;;;;;;22.98;12.58;;;;;;;-2.18;72.21;98499.94;1787130;80;21464;-40
2022/11/19 00:58:19;;;;;;;26.07;12.53;;;;;;;-2.09;72.22;98497.66;1787078;80;20971;-40
2022/11/19 01:00:46;;;;;;;26.82;12.80;;;;;;;-2.11;71.32;98494.27;1787080;80;21037;-37
2022/11/19 01:03:12;;;;;;;19.80;11.55;;;;;;;-2.11;71.32;98494.27;1787265;80;21018;-38
2022/11/19 01:05:37;;;;;;;19.42;11.10;;;;;;;-2.21;71.35;98492.70;1787019;80;20971;-41
2022/11/19 01:08:03;;;;;;;24.63;11.85;;;;;;;-2.37;71.18;98484.37;1786971;80;21018;-39
2022/11/19 01:10:29;;;;;;;27.35;12.75;;;;;;;-2.09;71.42;98496.38;1787010;80;21011;-35
2022/11/19 01:15:39;;;;;;;24.37;12.28;;;;;;;-2.09;71.07;98500.23;1787059;80;21102;-38
2022/11/19 01:18:05;;;;;;;22.82;12.35;;;;;;;-1.92;71.35;98499.94;1786986;80;20995;-37
2022/11/19 01:20:31;;;;;;;20.40;11.78;;;;;;;-1.98;71.15;98500.89;1786963;80;21066;-41
2022/11/19 01:22:56;;;;;;;17.95;10.72;;;;;;;-2.05;71.00;98504.90;1786973;80;20983;-37
2022/11/19 01:25:22;;;;;;;24.05;10.70;;;;;;;-2.27;70.68;98505.66;1786988;80;20980;-40
2022/11/19 01:27:48;;;;;;;20.35;10.53;;;;;;;-2.12;71.07;98495.12;1786708;80;20963;-37
2022/11/19 01:30:14;;;;;;;21.23;11.25;;;;;;;-2.08;71.27;98493.34;1786762;80;20991;-36
2022/11/19 01:32:40;;;;;;;21.97;10.75;;;;;;;-2.03;71.17;98500.12;1786997;80;21607;-39
2022/11/19 01:35:07;;;;;;;18.57;10.25;;;;;;;-2.07;70.76;98501.05;1786933;80;21007;-40
2022/11/19 01:37:33;;;;;;;20.08;10.28;;;;;;;-2.15;70.84;98499.03;1787114;80;20968;-38
2022/11/19 01:39:58;;;;;;;18.27;10.38;;;;;;;-2.23;70.38;98498.32;1786990;80;21101;-40
2022/11/19 01:42:49;;;;;;;18.07;10.48;;;;;;;-2.40;71.30;98495.58;1786998;80;21441;-40
2022/11/19 01:45:39;;;;;;;18.48;10.45;;;;;;;-2.21;70.91;98492.26;1787133;80;21472;-37
2022/11/19 01:48:24;;;;;;;16.35;9.70;;;;;;;-2.16;71.07;98496.91;1786963;80;21067;-36
2022/11/19 01:50:57;;;;;;;14.45;9.15;;;;;;;-2.06;70.04;98498.87;1787006;80;21461;-38
2022/11/19 01:53:28;;;;;;;12.80;8.80;;;;;;;-1.98;70.02;98494.90;1786978;80;20998;-40
2022/11/19 01:55:55;;;;;;;17.12;9.28;;;;;;;-2.30;68.98;98491.57;1786966;80;21506;-39
2022/11/19 01:58:23;;;;;;;16.02;9.48;;;;;;;-2.25;69.84;98501.36;1787170;80;21010;-37
2022/11/19 02:00:49;;;;;;;14.07;9.15;;;;;;;-2.13;69.98;98497.27;1787091;80;20994;-41
2022/11/19 02:03:15;;;;;;;14.63;9.00;;;;;;;-2.09;69.96;98496.38;1787030;80;21508;-38
2022/11/19 02:05:42;;;;;;;16.00;9.60;;;;;;;-2.02;69.72;98496.67;1787290;80;21613;-40
2022/11/19 02:08:29;;;;;;;15.40;9.30;;;;;;;-2.04;69.58;98502.72;1786953;80;20998;-40
2022/11/19 02:11:04;;;;;;;;;;;;;;;-2.00;69.58;98503.06;1789662;80;20994;-36
2022/11/19 02:13:44;;;;;;;13.25;8.40;;;;;;;-2.14;69.41;98505.90;1787133;80;20108;-41
2022/11/19 02:16:45;;;;;;;18.75;8.50;;;;;;;-2.07;69.58;98510.07;1786966;80;21422;-39
2022/11/19 02:19:20;;;;;;;13.35;8.60;;;;;;;-1.95;69.55;98513.73;1787065;80;21030;-38
2022/11/19 02:22:22;;;;;;;12.98;8.33;;;;;;;-1.90;69.03;98512.34;1784418;80;21464;-38
2022/11/19 02:25:08;;;;;;;12.75;7.72;;;;;;;-1.98;68.68;98511.20;1768665;80;21026;-38
2022/11/19 02:28:23;;;;;;;14.87;8.45;;;;;;;-2.08;68.43;98512.22;1786467;80;20994;-39
2022/11/19 02:30:52;;;;;;;17.77;8.83;;;;;;;-2.01;68.36;98512.98;1777396;80;20932;-40
2022/11/19 02:33:26;;;;;;;11.10;7.90;;;;;;;-1.96;68.32;98523.62;1747582;82;20968;-37
2022/11/19 02:36:03;;;;;;;11.73;7.78;;;;;;;-1.96;68.13;98525.34;1747474;82;20968;-38
2022/11/19 02:38:48;;;;;;;14.03;9.35;;;;;;;-2.02;68.51;98522.44;1744632;81;21402;-37
2022/11/19 02:41:34;;;;;;;14.63;8.98;;;;;;;-2.05;68.85;98527.64;1747983;81;20968;-39
2022/11/19 02:47:15;;;;;;;11.70;8.03;;;;;;;-2.16;69.49;98524.39;1747719;82;21072;-39
2022/11/19 02:49:44;;;;;;;17.80;9.00;;;;;;;-2.30;70.18;98523.77;1752574;82;21070;-40
2022/11/19 02:52:12;;;;;;;14.47;8.93;;;;;;;-2.14;69.78;98521.35;1753263;80;21047;-37
2022/11/19 02:54:38;;;;;;;12.68;8.80;;;;;;;-2.04;69.84;98523.33;1753573;82;21536;-41
2022/11/19 02:57:04;;;;;;;16.60;8.73;;;;;;;-2.00;69.76;98523.27;1753656;81;21008;-39
2022/11/19 03:05:29;;;;;;;15.90;9.88;;;;;;;-2.10;69.11;98519.12;1753607;82;21450;-37
2022/11/19 03:07:55;;;;;;;13.58;9.13;;;;;;;-2.08;69.54;98521.23;1753595;82;20952;-36
2022/11/19 03:10:26;;;;;;;15.53;9.58;;;;;;;-2.08;69.59;98526.39;1753612;82;21014;-39
2022/11/19 03:12:57;;;;;;;14.45;9.78;;;;;;;-2.14;69.66;98529.92;1753681;80;21034;-37
2022/11/19 03:18:32;;;;;;;17.00;9.85;;;;;;;-2.04;69.74;98524.17;1753706;82;20967;-38
2022/11/19 03:21:23;;;;;;;15.85;10.28;;;;;;;-2.06;69.66;98531.08;1725881;82;20979;-41
2022/11/19 03:23:57;;;;;;;17.65;9.85;;;;;;;-1.98;69.49;98539.98;1753601;82;21843;-38
2022/11/19 03:26:36;;;;;;;22.15;10.50;;;;;;;-2.19;69.02;98543.75;1753662;81;20967;-41
2022/11/19 03:29:06;;;;;;;16.52;10.28;;;;;;;-2.13;69.10;98543.64;1753676;82;20995;-37
2022/11/19 03:31:33;;;;;;;18.57;10.98;;;;;;;-2.34;69.75;98543.11;1730403;80;21485;-45
2022/11/19 03:34:05;;;;;;;18.52;10.55;;;;;;;-2.27;69.72;98542.59;1676963;84;20968;-45
2022/11/19 03:36:35;;;;;;;16.57;10.13;;;;;;;-2.35;69.47;98549.56;1678942;85;21047;-49
2022/11/19 03:39:16;;;;;;;17.15;11.20;;;;;;;-2.34;69.74;98536.67;1679671;85;21532;-55
2022/11/19 03:41:46;;;;;;;16.65;10.45;;;;;;;-2.38;70.32;98547.91;1679491;85;21595;-47
2022/11/19 03:44:16;;;;;;;18.00;11.53;;;;;;;-2.36;70.21;98555.16;1666149;85;21015;-51
2022/11/19 03:46:44;;;;;;;20.23;11.90;;;;;;;-2.45;69.94;98557.04;1688660;85;20999;-47
2022/11/19 03:49:13;;;;;;;16.70;11.08;;;;;;;-2.56;71.36;98563.62;1687699;85;21046;-47
2022/11/19 03:51:51;;;;;;;19.57;10.53;;;;;;;-2.56;71.35;98559.77;1686242;85;21047;-44
2022/11/19 03:54:16;;;;;;;;;;;;;;;-2.54;70.98;98561.88;1688861;85;21972;-43
2022/11/19 03:56:44;;;;;;;12.95;9.05;;;;;;;-2.58;71.66;98565.38;1686264;85;20139;-52
2022/11/19 03:59:11;;;;;;;14.80;10.25;;;;;;;-2.52;71.04;98567.41;1686273;85;21034;-47
2022/11/19 04:01:38;;;;;;;20.05;11.12;;;;;;;-2.54;70.81;98565.29;1686370;85;21003;-45
2022/11/19 04:06:49;;;;;;;18.52;11.45;;;;;;;-2.63;71.50;98571.02;1677133;85;21453;-46
2022/11/19 04:09:15;;;;;;;20.33;11.07;;;;;;;-2.63;71.47;98573.59;1681241;85;21007;-42
2022/11/19 04:11:42;;;;;;;20.68;11.75;;;;;;;-2.63;71.61;98571.02;1686284;85;21473;-52
2022/11/19 04:14:08;;;;;;;20.20;11.08;;;;;;;-2.57;71.78;98570.92;1686405;85;21003;-44
2022/11/19 04:16:34;;;;;;;18.60;9.65;;;;;;;-2.59;71.53;98577.81;1686247;85;20975;-52
2022/11/19 04:19:00;;;;;;;20.52;10.93;;;;;;;-2.56;71.22;98574.77;1686370;85;21003;-47
2022/11/19 04:21:26;;;;;;;16.48;10.25;;;;;;;-2.73;71.81;98577.58;1686253;85;21032;-52
2022/11/19 04:23:51;;;;;;;20.70;11.10;;;;;;;-2.84;72.00;98578.13;1686238;85;21510;-44
2022/11/19 04:26:17;;;;;;;21.10;11.70;;;;;;;-2.92;72.45;98574.81;1686171;85;21468;-46
2022/11/19 04:28:43;;;;;;;16.40;10.55;;;;;;;-2.84;72.46;98581.98;1686302;85;21039;-50
2022/11/19 04:31:09;;;;;;;20.30;11.57;;;;;;;-2.82;72.49;98581.56;1686226;84;21447;-52
2022/11/19 04:33:35;;;;;;;22.52;11.53;;;;;;;-2.92;72.75;98583.37;1691780;84;21007;-45
2022/11/19 04:36:01;;;;;;;18.27;10.53;;;;;;;-2.82;72.33;98587.99;1692924;85;21030;-50
2022/11/19 04:38:26;;;;;;;20.75;10.93;;;;;;;-2.93;72.59;98591.11;1692916;85;20979;-46
2022/11/19 04:40:52;;;;;;;18.50;11.55;;;;;;;-2.95;72.41;98591.56;1692866;84;21003;-52
2022/11/19 04:43:18;;;;;;;20.68;11.85;;;;;;;-2.99;72.80;98596.34;1692875;85;21010;-43
2022/11/19 04:45:43;;;;;;;22.65;12.28;;;;;;;-3.06;73.04;98608.85;1692891;85;21038;-49
2022/11/19 04:48:09;;;;;;;25.17;12.63;;;;;;;-3.02;72.49;98597.23;1692887;85;21034;-47
2022/11/19 04:50:35;;;;;;;25.72;13.65;;;;;;;-3.10;72.80;98606.30;1692945;84;21003;-50
2022/11/19 04:53:01;;;;;;;23.25;13.28;;;;;;;-3.16;73.50;98612.81;1692929;85;21007;-50
2022/11/19 04:55:26;;;;;;;24.35;13.45;;;;;;;-3.20;74.00;98615.01;1692913;85;21559;-45
2022/11/19 04:57:52;;;;;;;22.52;12.75;;;;;;;-3.25;74.39;98618.06;1692978;85;21483;-50
2022/11/19 05:00:18;;;;;;;25.23;13.22;;;;;;;-3.20;74.03;98623.14;1692922;84;21488;-44
2022/11/19 05:02:44;;;;;;;22.60;12.63;;;;;;;-3.21;74.06;98620.16;1692968;85;20999;-51
2022/11/19 05:05:10;;;;;;;21.33;11.55;;;;;;;-3.19;74.27;98621.84;1692907;85;21073;-50
2022/11/19 05:07:36;;;;;;;20.82;12.65;;;;;;;-3.04;73.55;98627.69;1692901;85;20999;-55
2022/11/19 05:10:03;;;;;;;20.88;12.82;;;;;;;-3.13;73.85;98628.22;1692904;85;21504;-50
2022/11/19 05:12:29;;;;;;;22.60;12.63;;;;;;;-3.12;73.36;98635.05;1692995;85;21430;-52
2022/11/19 05:14:54;;;;;;;21.65;12.85;;;;;;;-3.24;73.73;98639.47;1692876;85;21003;-51
2022/11/19 05:17:20;;;;;;;21.57;12.78;;;;;;;-3.20;73.34;98642.02;1692865;85;21038;-45
2022/11/19 05:19:46;;;;;;;22.10;12.63;;;;;;;-3.36;73.91;98643.03;1692863;85;21008;-43
2022/11/19 05:22:12;;;;;;;24.50;12.88;;;;;;;-3.35;74.25;98645.56;1692850;85;20997;-51
2022/11/19 05:24:38;;;;;;;23.05;13.30;;;;;;;-3.27;74.07;98649.38;1692875;85;20991;-50
2022/11/19 05:27:03;;;;;;;25.17;13.85;;;;;;;-3.26;74.16;98656.20;1692953;85;21567;-50
2022/11/19 05:29:29;;;;;;;25.68;14.45;;;;;;;-3.28;74.40;98657.49;1692989;85;21034;-51
2022/11/19 05:31:55;;;;;;;22.87;13.60;;;;;;;-3.24;74.04;98665.19;1693003;84;20975;-50
2022/11/19 05:34:21;;;;;;;28.42;13.83;;;;;;;-3.25;74.06;98660.93;1691055;84;21007;-47
2022/11/19 05:36:46;;;;;;;24.30;14.25;;;;;;;-3.30;74.07;98664.81;1688427;85;21418;-45
2022/11/19 05:39:12;;;;;;;27.10;13.38;;;;;;;-3.30;74.07;98664.81;1688331;85;21011;-50
2022/11/19 05:41:38;;;;;;;23.35;14.03;;;;;;;-3.14;73.97;98662.95;1688428;85;21003;-48
2022/11/19 05:44:04;;;;;;;23.98;13.85;;;;;;;-3.14;73.97;98662.95;1688365;85;21003;-52
2022/11/19 05:46:30;;;;;;;22.98;12.58;;;;;;;-3.16;73.72;98665.53;1688415;85;21520;-51
2022/11/19 05:48:56;;;;;;;22.37;13.43;;;;;;;-3.21;73.66;98661.31;1688382;84;21003;-45
2022/11/19 05:51:21;;;;;;;22.65;12.90;;;;;;;-3.13;73.14;98664.64;1688402;84;21047;-48
2022/11/19 05:53:47;;;;;;;28.07;13.83;;;;;;;-3.18;73.35;98668.56;1688305;85;21003;-48
2022/11/19 05:56:13;;;;;;;25.52;15.05;;;;;;;-3.27;74.05;98667.37;1688402;85;21003;-53
2022/11/19 05:58:39;;;;;;;27.15;14.87;;;;;;;-3.32;74.00;98672.54;1688423;85;20999;-48
2022/11/19 06:01:06;;;;;;;28.17;15.32;;;;;;;-3.31;73.78;98678.11;1688379;85;20990;-50
2022/11/19 06:03:32;;;;;;;29.07;15.40;;;;;;;-3.38;74.01;98683.33;1684499;83;21199;-48
2022/11/19 06:05:57;;;;;;;28.20;15.70;;;;;;;-3.43;74.32;98678.66;1682916;84;21019;-49
2022/11/19 06:08:23;;;;;;;26.48;14.68;;;;;;;-3.39;74.19;98679.05;1682791;84;20995;-44
2022/11/19 06:10:49;;;;;;;30.27;17.30;;;;;;;-3.41;74.25;98685.92;1683003;84;21027;-44
2022/11/19 06:13:15;;;;;;;29.37;15.55;;;;;;;-3.49;74.70;98692.42;1683029;85;21040;-45
2022/11/19 06:15:41;;;;;;;25.05;15.28;;;;;;;-3.44;74.80;98689.80;1683031;85;21000;-52
2022/11/19 06:18:07;;;;;;;25.52;15.60;;;;;;;-3.41;74.53;98692.34;1682898;85;21028;-50
2022/11/19 06:20:33;;;;;;;35.80;18.57;;;;;;;-3.40;74.23;98700.05;1682901;85;21015;-45
2022/11/19 06:22:59;;;;;;;32.28;17.10;;;;;;;-3.49;74.41;98711.26;1682800;85;21007;-46
2022/11/19 06:25:25;;;;;;;24.43;14.75;;;;;;;-3.54;74.81;98713.00;1682900;85;21010;-50
2022/11/19 06:27:50;;;;;;;25.82;14.30;;;;;;;-3.58;74.73;98710.48;1682912;84;21011;-48
2022/11/19 06:30:16;;;;;;;24.80;14.90;;;;;;;-3.61;74.44;98710.06;1682892;85;20999;-52
2022/11/19 06:32:43;;;;;;;29.98;15.75;;;;;;;-3.64;74.73;98711.36;1682815;84;21012;-47
2022/11/19 06:35:09;;;;;;;28.47;16.35;;;;;;;-3.66;74.69;98715.66;1683166;84;21043;-48
2022/11/19 06:37:34;;;;;;;27.27;15.28;;;;;;;-3.78;74.92;98715.73;1682867;85;20987;-45
2022/11/19 06:40:00;;;;;;;29.63;16.90;;;;;;;-3.68;74.89;98717.39;1682915;84;21051;-50
2022/11/19 06:42:35;;;;;;;32.80;17.70;;;;;;;-3.77;75.11;98713.16;1682897;85;21012;-44
2022/11/19 06:45:04;;;;;;;35.40;17.82;;;;;;;-3.73;75.19;98722.98;1683043;84;21027;-46
2022/11/19 06:47:32;;;;;;;31.97;17.32;;;;;;;-3.67;74.88;98715.26;1682938;85;21061;-43
2022/11/19 06:49:58;;;;;;;28.25;17.50;;;;;;;-3.62;74.59;98721.63;1682874;85;21532;-46
2022/11/19 06:52:24;;;;;;;29.05;17.37;;;;;;;-3.65;75.05;98715.25;1682972;85;21047;-54
2022/11/19 06:54:50;;;;;;;30.05;17.02;;;;;;;-3.62;74.89;98719.06;1682938;85;21016;-46
2022/11/19 06:57:16;;;;;;;32.53;16.95;;;;;;;-3.62;74.71;98721.22;1682884;85;21043;-45
2022/11/19 06:59:42;;;;;;;34.20;17.62;;;;;;;-3.61;74.69;98722.06;1682915;84;20980;-50
2022/11/19 07:02:10;;;;;;;31.57;17.27;;;;;;;-3.57;74.61;98725.87;1682916;84;21016;-49
2022/11/19 07:04:36;;;;;;;32.45;17.25;;;;;;;-3.53;74.71;98726.70;1682827;84;21023;-45
2022/11/19 07:07:03;;;;;;;29.90;15.98;;;;;;;-3.50;74.59;98730.10;1683114;84;21007;-50
2022/11/19 07:09:29;;;;;;;32.40;16.85;;;;;;;-3.42;74.43;98725.33;1683036;85;21015;-50
2022/11/19 07:11:54;;;;;;;32.00;17.23;;;;;;;-3.35;73.96;98730.41;1682974;85;21512;-49
2022/11/19 07:14:20;;;;;;;29.52;16.85;;;;;;;-3.35;73.91;98728.28;1682966;85;21449;-51
2022/11/19 07:16:46;;;;;;;38.00;19.95;;;;;;;-3.28;73.50;98728.65;1683121;85;21487;-43
2022/11/19 07:19:12;;;;;;;35.45;19.90;;;;;;;-3.28;73.50;98728.65;1683035;84;21043;-46
2022/11/19 07:21:38;;;;;;;42.55;24.80;;;;;;;-3.30;73.42;98732.95;1688609;84;21023;-49
2022/11/19 07:24:07;;;;;;;36.00;19.50;;;;;;;-3.20;73.48;98729.45;1683031;84;20991;-47
2022/11/19 07:26:34;;;;;;;38.02;19.92;;;;;;;-3.20;73.14;98735.87;1683028;85;21492;-47
2022/11/19 07:29:03;;;;;;;36.93;20.20;;;;;;;-3.21;73.32;98734.16;1683259;84;20985;-43
2022/11/19 07:31:30;;;;;;;39.30;19.92;;;;;;;-3.26;73.63;98734.63;1683029;84;21011;-52
2022/11/19 07:33:56;;;;;;;37.30;18.65;;;;;;;-3.24;73.55;98732.05;1685647;84;21031;-50
2022/11/19 07:36:22;;;;;;;28.50;16.65;;;;;;;-3.16;73.71;98737.55;1687458;85;21050;-44
2022/11/19 07:38:49;;;;;;;49.93;24.20;;;;;;;-3.13;73.62;98732.39;1688451;84;21047;-57
2022/11/19 07:43:59;;;;;;;46.05;25.62;;;;;;;-3.19;73.63;98736.28;1692279;85;21045;-52
2022/11/19 07:46:25;;;;;;;33.28;19.67;;;;;;;-3.16;73.30;98740.12;1692107;84;21020;-55
2022/11/19 07:48:53;;;;;;;31.93;17.82;;;;;;;-3.13;72.41;98735.37;1692130;85;21011;-47
2022/11/19 07:51:19;;;;;;;33.60;16.80;;;;;;;-3.09;72.68;98739.20;1692254;84;21003;-44
2022/11/19 07:53:45;;;;;;;32.17;16.25;;;;;;;-3.03;72.21;98746.45;1692193;84;21014;-52
2022/11/19 07:56:11;;;;;;;34.58;18.62;;;;;;;-3.03;71.48;98742.59;1692114;85;21011;-50
2022/11/19 07:58:37;;;;;;;33.33;16.75;;;;;;;-3.02;71.29;98740.41;1692221;84;21018;-46
2022/11/19 08:01:19;;;;;;;31.07;15.55;;;;;;;-2.95;71.97;98747.21;1692225;85;21019;-49
2022/11/19 08:03:46;;;;;;;30.05;16.30;;;;;;;-2.92;72.33;98745.46;1692160;84;20971;-43
2022/11/19 08:06:13;;;;;;;;;;;;;;;-2.87;72.47;98741.57;1694728;85;21915;-45
2022/11/19 08:08:39;;;;;;;83.25;38.65;;;;;;;-2.87;71.53;98739.00;1692254;85;20172;-45
2022/11/19 08:11:07;;;;;;;39.08;18.95;;;;;;;-2.82;71.60;98732.09;1692114;85;21491;-44
2022/11/19 08:13:34;;;;;;;39.23;19.67;;;;;;;-2.78;71.03;98738.91;1692117;85;21559;-52
2022/11/19 08:16:02;;;;;;;38.00;19.12;;;;;;;-2.77;70.13;98740.59;1692472;84;21163;-45
2022/11/19 08:18:28;;;;;;;32.55;17.80;;;;;;;-2.72;69.98;98737.54;1692148;84;21496;-53
2022/11/19 08:20:55;;;;;;;30.02;14.47;;;;;;;-2.61;69.95;98744.30;1692163;84;20988;-50
2022/11/19 08:23:25;;;;;;;23.35;14.07;;;;;;;-2.59;69.05;98746.42;1692116;85;20991;-50
2022/11/19 08:25:49;;;;;;;23.27;12.75;;;;;;;-2.54;68.83;98748.52;1691291;84;21003;-45
2022/11/19 08:28:15;;;;;;;25.35;12.90;;;;;;;-2.47;68.41;98746.30;1692125;85;20987;-49
2022/11/19 08:30:41;;;;;;;18.85;12.78;;;;;;;-2.40;67.87;98747.05;1692088;85;21004;-47
2022/11/19 08:33:08;;;;;;;17.32;11.38;;;;;;;-2.37;67.87;98747.88;1691747;85;21032;-50
2022/11/19 08:35:34;;;;;;;18.35;10.30;;;;;;;-2.32;66.91;98746.09;1688083;85;21516;-45
2022/11/19 08:38:00;;;;;;;18.12;10.88;;;;;;;-1.86;65.22;98743.36;1682987;85;21015;-55
2022/11/19 08:40:26;;;;;;;13.20;8.90;;;;;;;-1.50;64.19;98747.56;1684411;85;21007;-51
2022/11/19 08:43:00;;;;;;;16.82;10.30;;;;;;;-1.17;61.75;98751.33;1687362;85;21011;-43
2022/11/19 08:45:36;;;;;;;16.67;10.08;;;;;;;-0.95;61.33;98750.97;1687428;85;21019;-51
2022/11/19 08:48:06;;;;;;;17.23;10.20;;;;;;;-0.73;59.47;98753.17;1686932;84;21071;-48
2022/11/19 08:50:32;;;;;;;12.80;8.90;;;;;;;-0.60;59.27;98754.64;1687374;85;21023;-46
2022/11/19 08:53:02;;;;;;;10.65;7.95;;;;;;;-0.48;58.35;98753.13;1687724;84;21500;-44
2022/11/19 08:55:30;;;;;;;23.10;11.40;;;;;;;-0.49;59.32;98756.60;1687069;85;20980;-45
2022/11/19 08:58:01;;;;;;;17.45;10.40;;;;;;;-0.65;58.52;98759.91;1687587;85;21544;-41
2022/11/19 09:00:28;;;;;;;13.45;9.08;;;;;;;-0.83;58.10;98761.09;1687510;84;21014;-49
2022/11/19 09:02:54;;;;;;;15.10;8.77;;;;;;;-0.97;57.43;98763.05;1687640;84;21027;-50
2022/11/19 09:05:20;;;;;;;9.18;6.78;;;;;;;-0.99;58.49;98763.08;1687366;85;21068;-47
2022/11/19 09:07:46;;;;;;;10.00;6.50;;;;;;;-1.09;58.12;98768.00;1687371;85;21152;-51
2022/11/19 09:10:11;;;;;;;11.85;7.65;;;;;;;-1.11;57.50;98768.47;1692988;84;21015;-54
2022/11/19 09:12:37;;;;;;;13.08;8.30;;;;;;;-1.19;57.42;98769.02;1693110;85;21473;-50
2022/11/19 09:15:05;;;;;;;13.95;8.53;;;;;;;-1.24;58.35;98769.07;1690217;85;21527;-47
2022/11/19 09:17:31;;;;;;;12.40;7.83;;;;;;;-1.31;58.15;98768.78;1687374;85;21524;-47
2022/11/19 09:19:57;;;;;;;9.73;7.35;;;;;;;-1.32;58.57;98760.63;1692106;84;21064;-53
2022/11/19 09:22:23;;;;;;;14.40;7.97;;;;;;;-1.31;59.16;98765.33;1692847;84;21520;-47
2022/11/19 09:24:48;;;;;;;10.93;7.87;;;;;;;-1.31;59.08;98778.23;1692761;85;21010;-47
2022/11/19 09:27:14;;;;;;;11.30;8.33;;;;;;;-1.32;58.46;98778.67;1692786;85;20991;-45
2022/11/19 09:29:40;;;;;;;14.50;9.00;;;;;;;-1.29;58.86;98782.92;1692780;85;21038;-54
2022/11/19 09:32:05;;;;;;;13.03;8.43;;;;;;;-1.28;59.75;98779.48;1692752;84;20999;-51
2022/11/19 09:34:33;;;;;;;16.27;9.45;;;;;;;-1.30;59.29;98783.81;1693119;83;21110;-47
2022/11/19 09:36:59;;;;;;;15.35;9.30;;;;;;;-1.31;59.72;98787.26;1688201;85;20971;-48
2022/11/19 09:39:24;;;;;;;15.08;8.88;;;;;;;-1.31;59.17;98774.36;1686524;83;21006;-53
2022/11/19 09:42:11;;;;;;;14.15;8.58;;;;;;;-1.40;58.92;98775.34;1678983;85;20987;-48
2022/11/19 09:45:10;;;;;;;14.45;8.60;;;;;;;-1.31;59.71;98779.11;1678905;85;20986;-43
2022/11/19 09:48:00;;;;;;;21.15;10.10;;;;;;;-1.29;59.46;98786.80;1679004;85;21031;-41
2022/11/19 09:50:34;;;;;;;13.90;9.43;;;;;;;-1.28;59.52;98781.61;1678661;84;21456;-50
2022/11/19 09:53:20;;;;;;;18.73;10.45;;;;;;;-1.41;58.00;98778.38;1676986;85;20978;-51
2022/11/19 09:55:49;;;;;;;19.92;10.70;;;;;;;-1.36;58.60;98779.16;1678988;85;21058;-49
2022/11/19 09:58:25;;;;;;;13.93;8.93;;;;;;;-1.38;58.27;98776.20;1679079;85;21402;-50
2022/11/19 10:00:51;;;;;;;14.57;9.20;;;;;;;-1.34;59.03;98769.27;1679174;85;21479;-46
2022/11/19 10:03:21;;;;;;;13.68;8.95;;;;;;;-1.34;58.51;98767.53;1668695;85;22168;-40
2022/11/19 10:05:55;;;;;;;19.37;9.68;;;;;;;-1.26;59.29;98774.70;1658346;86;21516;-53
2022/11/19 10:08:45;;;;;;;15.28;8.83;;;;;;;-1.25;59.63;98771.26;1658065;85;21007;-47
2022/11/19 10:11:43;;;;;;;12.03;8.63;;;;;;;-1.29;58.48;98770.03;1681653;85;21035;-55
2022/11/19 10:14:36;;;;;;;16.82;10.80;;;;;;;-1.24;59.51;98764.36;1678122;85;20970;-48
2022/11/19 10:17:31;;;;;;;16.02;9.70;;;;;;;-1.20;58.88;98764.72;1679150;85;20960;-50
2022/11/19 10:20:11;;;;;;;20.45;10.10;;;;;;;-1.24;58.99;98758.75;1682111;85;21541;-49
2022/11/19 10:22:49;;;;;;;14.15;9.83;;;;;;;-1.24;59.02;98758.75;1681830;85;21054;-54
2022/11/19 10:25:20;;;;;;;16.48;9.35;;;;;;;-1.17;59.27;98761.65;1682533;85;21124;-47
2022/11/19 10:27:54;;;;;;;17.00;9.18;;;;;;;-1.18;59.21;98763.84;1682102;85;21019;-49
2022/11/19 10:30:24;;;;;;;15.13;9.00;;;;;;;-1.24;58.79;98763.91;1681425;85;21040;-46
2022/11/19 10:33:13;;;;;;;15.10;8.63;;;;;;;-1.22;58.18;98767.34;1682128;85;21012;-48
2022/11/19 10:35:47;;;;;;;20.02;9.18;;;;;;;-1.12;59.26;98764.62;1688132;85;21008;-48
2022/11/19 10:38:39;;;;;;;12.93;8.40;;;;;;;-1.05;59.88;98760.61;1684398;85;21015;-52
2022/11/19 10:41:16;;;;;;;13.60;8.35;;;;;;;-1.09;58.57;98756.80;1684363;85;21520;-44
2022/11/19 10:43:47;;;;;;;11.83;7.75;;;;;;;-1.00;58.67;98761.80;1689667;85;21449;-48
2022/11/19 10:46:21;;;;;;;14.35;7.90;;;;;;;-0.96;57.54;98760.90;1686702;85;21456;-55
2022/11/19 10:48:51;;;;;;;13.08;7.78;;;;;;;-0.91;57.92;98760.39;1679109;85;21008;-42
2022/11/19 10:51:28;;;;;;;11.88;7.72;;;;;;;-0.94;57.17;98766.04;1679389;85;20995;-51
2022/11/19 10:53:55;;;;;;;12.00;7.37;;;;;;;-0.85;58.07;98760.27;1677862;85;21540;-53
2022/11/19 10:56:37;;;;;;;12.05;6.80;;;;;;;-0.86;56.91;98762.88;1689970;85;20979;-42
2022/11/19 10:59:19;;;;;;;22.15;11.95;;;;;;;-0.78;58.10;98767.02;1682118;85;21035;-47
2022/11/19 11:01:56;;;;;;;16.57;9.53;;;;;;;-0.79;56.49;98770.47;1684465;85;21508;-54
2022/11/19 11:04:28;;;;;;;15.80;9.43;;;;;;;-0.81;56.73;98764.48;1684574;85;21035;-46
2022/11/19 11:07:00;;;;;;;15.30;9.08;;;;;;;-0.79;56.80;98770.47;1684542;85;21011;-48
2022/11/19 11:09:35;;;;;;;16.32;9.18;;;;;;;-0.78;56.87;98763.16;1684492;85;20996;-54
2022/11/19 11:15:16;;;;;;;11.78;7.90;;;;;;;-0.68;57.02;98757.82;1684461;85;20994;-52
2022/11/19 11:17:44;;;;;;;18.75;7.25;;;;;;;-0.62;57.20;98761.57;1684503;85;21054;-49
2022/11/19 11:20:19;;;;;;;13.48;7.35;;;;;;;-0.66;55.24;98757.34;1684392;85;21039;-46
2022/11/19 11:22:48;;;;;;;13.35;7.97;;;;;;;-0.64;56.37;98763.33;1684407;85;21004;-46
2022/11/19 11:25:26;;;;;;;12.65;8.20;;;;;;;-0.59;56.13;98756.36;1684453;85;21023;-52
2022/11/19 11:28:13;;;;;;;17.82;9.68;;;;;;;-0.63;55.25;98753.42;1689618;85;21454;-50
2022/11/19 11:31:03;;;;;;;17.17;9.47;;;;;;;-0.61;55.74;98750.37;1689436;85;21027;-49
2022/11/19 11:33:42;;;;;;;20.17;9.80;;;;;;;-0.51;56.83;98751.04;1684423;85;21059;-52
2022/11/19 11:36:18;;;;;;;24.30;10.80;;;;;;;-0.48;55.23;98743.23;1689950;85;21015;-53
2022/11/19 11:38:47;;;;;;;23.90;11.88;;;;;;;-0.45;56.25;98736.28;1684572;85;21024;-49
2022/11/19 11:41:24;;;;;;;20.37;10.13;;;;;;;-0.45;55.01;98745.32;1684439;85;21509;-48
2022/11/19 11:44:03;;;;;;;16.15;9.75;;;;;;;-0.36;56.16;98747.30;1682457;85;20988;-46
2022/11/19 11:46:54;;;;;;;16.45;10.25;;;;;;;-0.35;54.95;98746.43;1684438;85;21015;-51
2022/11/19 11:49:36;;;;;;;16.05;9.63;;;;;;;-0.36;53.77;98746.01;1684444;85;21019;-44
2022/11/19 11:52:14;;;;;;;18.15;9.33;;;;;;;-0.31;54.33;98742.90;1679977;85;21514;-44
2022/11/19 11:54:55;;;;;;;14.20;9.33;;;;;;;-0.28;53.59;98743.69;1680010;85;20973;-44
2022/11/19 11:57:26;;;;;;;13.78;9.13;;;;;;;-0.22;53.18;98746.58;1680034;85;21523;-53
2022/11/19 11:59:51;;;;;;;17.60;9.65;;;;;;;-0.30;51.10;98747.20;1680059;85;21664;-50
2022/11/19 12:02:31;;;;;;;19.02;11.00;;;;;;;-0.27;52.44;98749.73;1680004;85;21001;-50